sensor_id;sensor_type;location;lat;lon;timestamp;P1;durP1;ratioP1;P2;durP2;ratioP2
53867;SDS011;41577;47.470;19.080;2023-05-07T00:00:03;13.10;;;8.50;;
53867;SDS011;41577;47.470;19.080;2023-05-07T00:00:18;13.38;;;8.48;;
53867;SDS011;41577;47.470;19.080;2023-05-07T00:00:30;14.07;;;8.07;;
53867;SDS011;41577;47.470;19.080;2023-05-07T00:00:42;14.65;;;7.75;;
53867;SDS011;41577;47.470;19.080;2023-05-07T00:00:54;11.57;;;7.50;;
53867;SDS011;41577;47.470;19.080;2023-05-07T00:01:06;9.25;;;7.97;;
53867;SDS011;41577;47.470;19.080;2023-05-07T00:01:17;11.55;;;7.93;;
53867;SDS011;41577;47.470;19.080;2023-05-07T00:01:30;13.13;;;8.00;;
53867;SDS011;41577;47.470;19.080;2023-05-07T00:01:42;11.93;;;7.80;;
53867;SDS011;41577;47.470;19.080;2023-05-07T00:01:54;13.68;;;7.50;;
53867;SDS011;41577;47.470;19.080;2023-05-07T00:02:06;10.70;;;6.90;;
53867;SDS011;41577;47.470;19.080;2023-05-07T00:02:19;11.43;;;7.30;;
53867;SDS011;41577;47.470;19.080;2023-05-07T00:02:31;9.48;;;7.38;;
53867;SDS011;41577;47.470;19.080;2023-05-07T00:02:43;9.40;;;7.28;;
53867;SDS011;41577;47.470;19.080;2023-05-07T00:02:55;11.80;;;7.15;;
53867;SDS011;41577;47.470;19.080;2023-05-07T00:03:07;14.88;;;7.05;;
53867;SDS011;41577;47.470;19.080;2023-05-07T00:03:19;14.00;;;6.88;;
53867;SDS011;41577;47.470;19.080;2023-05-07T00:03:30;11.45;;;7.15;;
53867;SDS011;41577;47.470;19.080;2023-05-07T00:03:42;9.77;;;7.68;;
53867;SDS011;41577;47.470;19.080;2023-05-07T00:03:54;12.43;;;8.60;;
53867;SDS011;41577;47.470;19.080;2023-05-07T00:04:07;10.85;;;8.32;;
53867;SDS011;41577;47.470;19.080;2023-05-07T00:04:19;13.65;;;8.20;;
53867;SDS011;41577;47.470;19.080;2023-05-07T00:04:31;19.35;;;9.15;;
53867;SDS011;41577;47.470;19.080;2023-05-07T00:04:43;20.25;;;9.23;;
53867;SDS011;41577;47.470;19.080;2023-05-07T00:04:54;15.18;;;8.90;;
53867;SDS011;41577;47.470;19.080;2023-05-07T00:05:07;14.20;;;8.75;;
53867;SDS011;41577;47.470;19.080;2023-05-07T00:05:20;16.35;;;9.43;;
53867;SDS011;41577;47.470;19.080;2023-05-07T00:05:32;16.70;;;10.07;;
53867;SDS011;41577;47.470;19.080;2023-05-07T00:05:44;15.68;;;10.00;;
53867;SDS011;41577;47.470;19.080;2023-05-07T00:05:56;15.68;;;9.98;;
53867;SDS011;41577;47.470;19.080;2023-05-07T00:06:07;17.05;;;9.95;;
53867;SDS011;41577;47.470;19.080;2023-05-07T00:06:19;19.33;;;9.52;;
53867;SDS011;41577;47.470;19.080;2023-05-07T00:06:32;16.52;;;8.98;;
53867;SDS011;41577;47.470;19.080;2023-05-07T00:06:44;12.70;;;8.38;;
53867;SDS011;41577;47.470;19.080;2023-05-07T00:06:56;11.00;;;8.55;;
53867;SDS011;41577;47.470;19.080;2023-05-07T00:07:07;11.13;;;8.68;;
53867;SDS011;41577;47.470;19.080;2023-05-07T00:07:19;12.13;;;8.55;;
53867;SDS011;41577;47.470;19.080;2023-05-07T00:07:31;13.20;;;8.57;;
53867;SDS011;41577;47.470;19.080;2023-05-07T00:07:43;13.27;;;8.77;;
53867;SDS011;41577;47.470;19.080;2023-05-07T00:07:55;11.98;;;8.45;;
53867;SDS011;41577;47.470;19.080;2023-05-07T00:08:10;17.02;;;8.45;;
53867;SDS011;41577;47.470;19.080;2023-05-07T00:08:22;15.43;;;8.20;;
53867;SDS011;41577;47.470;19.080;2023-05-07T00:08:34;17.13;;;8.02;;
53867;SDS011;41577;47.470;19.080;2023-05-07T00:08:46;12.55;;;7.80;;
53867;SDS011;41577;47.470;19.080;2023-05-07T00:08:58;12.73;;;7.63;;
53867;SDS011;41577;47.470;19.080;2023-05-07T00:09:10;10.27;;;7.43;;
53867;SDS011;41577;47.470;19.080;2023-05-07T00:09:22;11.65;;;8.13;;
53867;SDS011;41577;47.470;19.080;2023-05-07T00:09:33;13.90;;;8.05;;
53867;SDS011;41577;47.470;19.080;2023-05-07T00:09:46;14.13;;;8.27;;
53867;SDS011;41577;47.470;19.080;2023-05-07T00:09:57;14.50;;;8.40;;
53867;SDS011;41577;47.470;19.080;2023-05-07T00:10:09;14.65;;;8.27;;
53867;SDS011;41577;47.470;19.080;2023-05-07T00:10:22;14.23;;;8.10;;
53867;SDS011;41577;47.470;19.080;2023-05-07T00:10:34;13.95;;;8.45;;
53867;SDS011;41577;47.470;19.080;2023-05-07T00:10:46;16.52;;;8.45;;
53867;SDS011;41577;47.470;19.080;2023-05-07T00:10:57;16.95;;;8.63;;
53867;SDS011;41577;47.470;19.080;2023-05-07T00:11:09;14.93;;;8.43;;
53867;SDS011;41577;47.470;19.080;2023-05-07T00:11:21;11.95;;;8.02;;
53867;SDS011;41577;47.470;19.080;2023-05-07T00:11:33;14.77;;;8.02;;
53867;SDS011;41577;47.470;19.080;2023-05-07T00:11:47;18.55;;;8.23;;
53867;SDS011;41577;47.470;19.080;2023-05-07T00:11:59;15.95;;;7.82;;
53867;SDS011;41577;47.470;19.080;2023-05-07T00:12:11;13.65;;;7.80;;
53867;SDS011;41577;47.470;19.080;2023-05-07T00:12:22;14.63;;;8.15;;
53867;SDS011;41577;47.470;19.080;2023-05-07T00:12:34;17.58;;;8.25;;
53867;SDS011;41577;47.470;19.080;2023-05-07T00:12:46;15.50;;;7.78;;
53867;SDS011;41577;47.470;19.080;2023-05-07T00:12:58;17.65;;;8.18;;
53867;SDS011;41577;47.470;19.080;2023-05-07T00:13:10;15.23;;;8.05;;
53867;SDS011;41577;47.470;19.080;2023-05-07T00:13:22;15.98;;;8.43;;
53867;SDS011;41577;47.470;19.080;2023-05-07T00:13:34;13.60;;;8.30;;
53867;SDS011;41577;47.470;19.080;2023-05-07T00:13:45;13.32;;;8.55;;
53867;SDS011;41577;47.470;19.080;2023-05-07T00:13:58;15.77;;;8.57;;
53867;SDS011;41577;47.470;19.080;2023-05-07T00:14:10;16.75;;;8.63;;
53867;SDS011;41577;47.470;19.080;2023-05-07T00:14:22;15.98;;;8.48;;
53867;SDS011;41577;47.470;19.080;2023-05-07T00:14:34;13.57;;;8.65;;
53867;SDS011;41577;47.470;19.080;2023-05-07T00:14:46;15.00;;;9.15;;
53867;SDS011;41577;47.470;19.080;2023-05-07T00:14:57;15.50;;;9.45;;
53867;SDS011;41577;47.470;19.080;2023-05-07T00:15:10;17.45;;;9.50;;
53867;SDS011;41577;47.470;19.080;2023-05-07T00:15:22;20.85;;;9.65;;
53867;SDS011;41577;47.470;19.080;2023-05-07T00:15:34;18.40;;;9.50;;
53867;SDS011;41577;47.470;19.080;2023-05-07T00:15:46;17.00;;;9.82;;
53867;SDS011;41577;47.470;19.080;2023-05-07T00:15:58;16.25;;;9.75;;
53867;SDS011;41577;47.470;19.080;2023-05-07T00:16:10;12.70;;;9.38;;
53867;SDS011;41577;47.470;19.080;2023-05-07T00:16:22;14.15;;;9.23;;
53867;SDS011;41577;47.470;19.080;2023-05-07T00:16:34;14.77;;;9.27;;
53867;SDS011;41577;47.470;19.080;2023-05-07T00:16:46;13.77;;;9.15;;
53867;SDS011;41577;47.470;19.080;2023-05-07T00:16:58;13.95;;;9.00;;
53867;SDS011;41577;47.470;19.080;2023-05-07T00:17:09;12.13;;;8.48;;
53867;SDS011;41577;47.470;19.080;2023-05-07T00:17:23;12.32;;;8.27;;
53867;SDS011;41577;47.470;19.080;2023-05-07T00:17:34;12.77;;;8.73;;
53867;SDS011;41577;47.470;19.080;2023-05-07T00:17:46;14.73;;;8.82;;
53867;SDS011;41577;47.470;19.080;2023-05-07T00:17:58;18.50;;;8.60;;
53867;SDS011;41577;47.470;19.080;2023-05-07T00:18:10;20.58;;;9.13;;
53867;SDS011;41577;47.470;19.080;2023-05-07T00:18:22;18.40;;;9.07;;
53867;SDS011;41577;47.470;19.080;2023-05-07T00:18:34;14.75;;;8.95;;
53867;SDS011;41577;47.470;19.080;2023-05-07T00:18:45;17.33;;;9.13;;
53867;SDS011;41577;47.470;19.080;2023-05-07T00:18:57;21.52;;;9.55;;
53867;SDS011;41577;47.470;19.080;2023-05-07T00:19:09;23.85;;;9.50;;
53867;SDS011;41577;47.470;19.080;2023-05-07T00:19:21;21.42;;;9.25;;
53867;SDS011;41577;47.470;19.080;2023-05-07T00:19:33;24.75;;;8.77;;
53867;SDS011;41577;47.470;19.080;2023-05-07T00:19:44;26.85;;;8.82;;
53867;SDS011;41577;47.470;19.080;2023-05-07T00:19:56;21.67;;;8.82;;
53867;SDS011;41577;47.470;19.080;2023-05-07T00:20:08;22.20;;;8.90;;
53867;SDS011;41577;47.470;19.080;2023-05-07T00:20:21;21.42;;;8.60;;
53867;SDS011;41577;47.470;19.080;2023-05-07T00:20:33;24.33;;;9.55;;
53867;SDS011;41577;47.470;19.080;2023-05-07T00:20:46;21.95;;;9.75;;
53867;SDS011;41577;47.470;19.080;2023-05-07T00:20:58;18.65;;;9.02;;
53867;SDS011;41577;47.470;19.080;2023-05-07T00:21:10;19.75;;;9.45;;
53867;SDS011;41577;47.470;19.080;2023-05-07T00:21:22;17.50;;;9.60;;
53867;SDS011;41577;47.470;19.080;2023-05-07T00:21:34;16.38;;;9.13;;
53867;SDS011;41577;47.470;19.080;2023-05-07T00:21:46;14.68;;;9.18;;
53867;SDS011;41577;47.470;19.080;2023-05-07T00:21:57;12.32;;;8.95;;
53867;SDS011;41577;47.470;19.080;2023-05-07T00:22:09;13.43;;;8.63;;
53867;SDS011;41577;47.470;19.080;2023-05-07T00:22:21;20.45;;;8.43;;
53867;SDS011;41577;47.470;19.080;2023-05-07T00:22:33;25.15;;;8.65;;
53867;SDS011;41577;47.470;19.080;2023-05-07T00:22:45;24.95;;;9.15;;
53867;SDS011;41577;47.470;19.080;2023-05-07T00:22:56;22.70;;;9.57;;
53867;SDS011;41577;47.470;19.080;2023-05-07T00:23:08;24.90;;;9.55;;
53867;SDS011;41577;47.470;19.080;2023-05-07T00:23:20;24.67;;;9.90;;
53867;SDS011;41577;47.470;19.080;2023-05-07T00:23:32;25.58;;;10.35;;
53867;SDS011;41577;47.470;19.080;2023-05-07T00:23:44;26.13;;;10.45;;
53867;SDS011;41577;47.470;19.080;2023-05-07T00:23:56;23.25;;;10.48;;
53867;SDS011;41577;47.470;19.080;2023-05-07T00:24:07;20.88;;;10.10;;
53867;SDS011;41577;47.470;19.080;2023-05-07T00:24:19;19.73;;;9.68;;
53867;SDS011;41577;47.470;19.080;2023-05-07T00:24:31;18.02;;;8.77;;
53867;SDS011;41577;47.470;19.080;2023-05-07T00:24:43;19.20;;;8.68;;
53867;SDS011;41577;47.470;19.080;2023-05-07T00:24:55;20.88;;;9.25;;
53867;SDS011;41577;47.470;19.080;2023-05-07T00:25:07;21.35;;;9.98;;
53867;SDS011;41577;47.470;19.080;2023-05-07T00:25:19;22.27;;;9.73;;
53867;SDS011;41577;47.470;19.080;2023-05-07T00:25:31;22.65;;;9.63;;
53867;SDS011;41577;47.470;19.080;2023-05-07T00:25:42;23.17;;;9.30;;
53867;SDS011;41577;47.470;19.080;2023-05-07T00:25:54;30.67;;;9.95;;
53867;SDS011;41577;47.470;19.080;2023-05-07T00:26:07;35.35;;;10.30;;
53867;SDS011;41577;47.470;19.080;2023-05-07T00:26:19;32.97;;;9.85;;
53867;SDS011;41577;47.470;19.080;2023-05-07T00:26:33;21.25;;;9.00;;
53867;SDS011;41577;47.470;19.080;2023-05-07T00:26:45;22.35;;;9.27;;
53867;SDS011;41577;47.470;19.080;2023-05-07T00:26:57;20.83;;;9.25;;
53867;SDS011;41577;47.470;19.080;2023-05-07T00:27:31;18.15;;;9.55;;
53867;SDS011;41577;47.470;19.080;2023-05-07T00:27:43;24.30;;;9.68;;
53867;SDS011;41577;47.470;19.080;2023-05-07T00:27:55;24.77;;;10.02;;
53867;SDS011;41577;47.470;19.080;2023-05-07T00:28:07;22.73;;;9.73;;
53867;SDS011;41577;47.470;19.080;2023-05-07T00:28:18;15.48;;;9.38;;
53867;SDS011;41577;47.470;19.080;2023-05-07T00:28:30;21.05;;;9.90;;
53867;SDS011;41577;47.470;19.080;2023-05-07T00:28:42;23.10;;;9.88;;
53867;SDS011;41577;47.470;19.080;2023-05-07T00:28:53;21.83;;;9.50;;
53867;SDS011;41577;47.470;19.080;2023-05-07T00:29:05;16.77;;;8.85;;
53867;SDS011;41577;47.470;19.080;2023-05-07T00:29:17;18.85;;;8.90;;
53867;SDS011;41577;47.470;19.080;2023-05-07T00:29:28;21.13;;;9.05;;
53867;SDS011;41577;47.470;19.080;2023-05-07T00:29:40;16.65;;;8.63;;
53867;SDS011;41577;47.470;19.080;2023-05-07T00:29:52;14.52;;;8.70;;
53867;SDS011;41577;47.470;19.080;2023-05-07T00:30:04;14.23;;;8.60;;
53867;SDS011;41577;47.470;19.080;2023-05-07T00:30:17;13.48;;;8.80;;
53867;SDS011;41577;47.470;19.080;2023-05-07T00:30:28;14.57;;;8.90;;
53867;SDS011;41577;47.470;19.080;2023-05-07T00:30:40;15.75;;;8.65;;
53867;SDS011;41577;47.470;19.080;2023-05-07T00:30:52;15.35;;;8.88;;
53867;SDS011;41577;47.470;19.080;2023-05-07T00:31:04;12.05;;;8.70;;
53867;SDS011;41577;47.470;19.080;2023-05-07T00:31:15;12.80;;;8.60;;
53867;SDS011;41577;47.470;19.080;2023-05-07T00:31:27;15.52;;;8.57;;
53867;SDS011;41577;47.470;19.080;2023-05-07T00:31:39;18.15;;;8.93;;
53867;SDS011;41577;47.470;19.080;2023-05-07T00:31:51;16.83;;;9.05;;
53867;SDS011;41577;47.470;19.080;2023-05-07T00:32:03;15.30;;;9.25;;
53867;SDS011;41577;47.470;19.080;2023-05-07T00:32:15;15.85;;;9.25;;
53867;SDS011;41577;47.470;19.080;2023-05-07T00:32:28;15.10;;;9.30;;
53867;SDS011;41577;47.470;19.080;2023-05-07T00:32:40;12.60;;;8.95;;
53867;SDS011;41577;47.470;19.080;2023-05-07T00:32:51;11.57;;;8.77;;
53867;SDS011;41577;47.470;19.080;2023-05-07T00:33:03;12.68;;;8.82;;
53867;SDS011;41577;47.470;19.080;2023-05-07T00:33:15;13.02;;;8.88;;
53867;SDS011;41577;47.470;19.080;2023-05-07T00:33:27;10.35;;;8.38;;
53867;SDS011;41577;47.470;19.080;2023-05-07T00:33:38;10.02;;;8.38;;
53867;SDS011;41577;47.470;19.080;2023-05-07T00:33:50;9.80;;;8.50;;
53867;SDS011;41577;47.470;19.080;2023-05-07T00:34:02;12.50;;;8.93;;
53867;SDS011;41577;47.470;19.080;2023-05-07T00:34:14;12.38;;;8.55;;
53867;SDS011;41577;47.470;19.080;2023-05-07T00:34:25;14.30;;;8.75;;
53867;SDS011;41577;47.470;19.080;2023-05-07T00:34:37;11.65;;;8.60;;
53867;SDS011;41577;47.470;19.080;2023-05-07T00:34:49;13.65;;;8.80;;
53867;SDS011;41577;47.470;19.080;2023-05-07T00:35:00;17.85;;;9.25;;
53867;SDS011;41577;47.470;19.080;2023-05-07T00:35:12;20.10;;;9.52;;
53867;SDS011;41577;47.470;19.080;2023-05-07T00:35:24;20.63;;;9.18;;
53867;SDS011;41577;47.470;19.080;2023-05-07T00:35:35;15.10;;;8.52;;
53867;SDS011;41577;47.470;19.080;2023-05-07T00:35:47;12.20;;;8.95;;
53867;SDS011;41577;47.470;19.080;2023-05-07T00:35:59;12.68;;;9.13;;
53867;SDS011;41577;47.470;19.080;2023-05-07T00:36:11;11.18;;;8.40;;
53867;SDS011;41577;47.470;19.080;2023-05-07T00:36:23;9.55;;;8.07;;
53867;SDS011;41577;47.470;19.080;2023-05-07T00:36:34;12.77;;;8.57;;
53867;SDS011;41577;47.470;19.080;2023-05-07T00:36:46;15.43;;;9.10;;
53867;SDS011;41577;47.470;19.080;2023-05-07T00:36:58;14.80;;;9.18;;
53867;SDS011;41577;47.470;19.080;2023-05-07T00:37:09;15.43;;;8.52;;
53867;SDS011;41577;47.470;19.080;2023-05-07T00:37:21;15.75;;;8.32;;
53867;SDS011;41577;47.470;19.080;2023-05-07T00:37:33;16.00;;;8.77;;
53867;SDS011;41577;47.470;19.080;2023-05-07T00:37:45;12.93;;;8.80;;
53867;SDS011;41577;47.470;19.080;2023-05-07T00:37:57;10.90;;;8.20;;
53867;SDS011;41577;47.470;19.080;2023-05-07T00:38:08;11.35;;;8.10;;
53867;SDS011;41577;47.470;19.080;2023-05-07T00:38:20;12.10;;;8.27;;
53867;SDS011;41577;47.470;19.080;2023-05-07T00:38:32;11.80;;;8.77;;
53867;SDS011;41577;47.470;19.080;2023-05-07T00:38:43;10.25;;;8.40;;
53867;SDS011;41577;47.470;19.080;2023-05-07T00:38:56;10.52;;;8.65;;
53867;SDS011;41577;47.470;19.080;2023-05-07T00:39:10;10.30;;;8.65;;
53867;SDS011;41577;47.470;19.080;2023-05-07T00:39:22;9.77;;;8.55;;
53867;SDS011;41577;47.470;19.080;2023-05-07T00:39:33;10.45;;;8.70;;
53867;SDS011;41577;47.470;19.080;2023-05-07T00:39:45;12.20;;;8.63;;
53867;SDS011;41577;47.470;19.080;2023-05-07T00:39:57;13.38;;;8.55;;
53867;SDS011;41577;47.470;19.080;2023-05-07T00:40:09;12.68;;;8.32;;
53867;SDS011;41577;47.470;19.080;2023-05-07T00:40:21;13.57;;;8.00;;
53867;SDS011;41577;47.470;19.080;2023-05-07T00:40:33;14.45;;;7.93;;
53867;SDS011;41577;47.470;19.080;2023-05-07T00:40:45;15.95;;;8.40;;
53867;SDS011;41577;47.470;19.080;2023-05-07T00:40:56;16.17;;;8.45;;
53867;SDS011;41577;47.470;19.080;2023-05-07T00:41:08;13.07;;;8.25;;
53867;SDS011;41577;47.470;19.080;2023-05-07T00:41:20;14.85;;;8.00;;
53867;SDS011;41577;47.470;19.080;2023-05-07T00:41:31;15.05;;;8.23;;
53867;SDS011;41577;47.470;19.080;2023-05-07T00:41:43;15.00;;;8.27;;
53867;SDS011;41577;47.470;19.080;2023-05-07T00:41:55;10.27;;;7.88;;
53867;SDS011;41577;47.470;19.080;2023-05-07T00:42:07;10.20;;;7.60;;
53867;SDS011;41577;47.470;19.080;2023-05-07T00:42:18;10.18;;;7.78;;
53867;SDS011;41577;47.470;19.080;2023-05-07T00:42:30;14.10;;;8.35;;
53867;SDS011;41577;47.470;19.080;2023-05-07T00:42:42;15.05;;;8.38;;
53867;SDS011;41577;47.470;19.080;2023-05-07T00:42:54;12.13;;;8.00;;
53867;SDS011;41577;47.470;19.080;2023-05-07T00:43:05;11.18;;;7.88;;
53867;SDS011;41577;47.470;19.080;2023-05-07T00:43:17;11.65;;;8.25;;
53867;SDS011;41577;47.470;19.080;2023-05-07T00:43:29;12.52;;;8.43;;
53867;SDS011;41577;47.470;19.080;2023-05-07T00:43:41;12.88;;;8.27;;
53867;SDS011;41577;47.470;19.080;2023-05-07T00:43:52;12.15;;;8.30;;
53867;SDS011;41577;47.470;19.080;2023-05-07T00:44:04;12.95;;;8.52;;
53867;SDS011;41577;47.470;19.080;2023-05-07T00:44:16;14.85;;;8.60;;
53867;SDS011;41577;47.470;19.080;2023-05-07T00:44:28;14.90;;;8.02;;
53867;SDS011;41577;47.470;19.080;2023-05-07T00:44:39;13.10;;;7.90;;
53867;SDS011;41577;47.470;19.080;2023-05-07T00:44:51;10.55;;;7.90;;
53867;SDS011;41577;47.470;19.080;2023-05-07T00:45:03;10.73;;;8.20;;
53867;SDS011;41577;47.470;19.080;2023-05-07T00:45:15;9.88;;;8.00;;
53867;SDS011;41577;47.470;19.080;2023-05-07T00:45:27;9.48;;;8.35;;
53867;SDS011;41577;47.470;19.080;2023-05-07T00:45:40;10.15;;;8.05;;
53867;SDS011;41577;47.470;19.080;2023-05-07T00:45:52;10.05;;;7.47;;
53867;SDS011;41577;47.470;19.080;2023-05-07T00:46:03;11.05;;;7.65;;
53867;SDS011;41577;47.470;19.080;2023-05-07T00:46:15;10.68;;;8.00;;
53867;SDS011;41577;47.470;19.080;2023-05-07T00:46:27;10.30;;;8.27;;
53867;SDS011;41577;47.470;19.080;2023-05-07T00:46:40;11.48;;;8.35;;
53867;SDS011;41577;47.470;19.080;2023-05-07T00:46:52;12.25;;;8.00;;
53867;SDS011;41577;47.470;19.080;2023-05-07T00:47:05;12.57;;;7.85;;
53867;SDS011;41577;47.470;19.080;2023-05-07T00:47:17;12.98;;;8.10;;
53867;SDS011;41577;47.470;19.080;2023-05-07T00:47:30;11.10;;;8.18;;
53867;SDS011;41577;47.470;19.080;2023-05-07T00:47:42;10.15;;;8.20;;
53867;SDS011;41577;47.470;19.080;2023-05-07T00:47:55;8.63;;;7.57;;
53867;SDS011;41577;47.470;19.080;2023-05-07T00:48:08;10.05;;;7.72;;
53867;SDS011;41577;47.470;19.080;2023-05-07T00:48:20;10.73;;;7.60;;
53867;SDS011;41577;47.470;19.080;2023-05-07T00:48:32;10.18;;;7.80;;
53867;SDS011;41577;47.470;19.080;2023-05-07T00:48:44;10.75;;;8.00;;
53867;SDS011;41577;47.470;19.080;2023-05-07T00:48:56;11.43;;;8.18;;
53867;SDS011;41577;47.470;19.080;2023-05-07T00:49:08;13.50;;;8.63;;
53867;SDS011;41577;47.470;19.080;2023-05-07T00:49:20;13.43;;;8.38;;
53867;SDS011;41577;47.470;19.080;2023-05-07T00:49:34;10.15;;;7.90;;
53867;SDS011;41577;47.470;19.080;2023-05-07T00:49:49;13.10;;;7.55;;
53867;SDS011;41577;47.470;19.080;2023-05-07T00:50:01;13.55;;;7.43;;
53867;SDS011;41577;47.470;19.080;2023-05-07T00:50:12;10.80;;;7.50;;
53867;SDS011;41577;47.470;19.080;2023-05-07T00:50:25;8.68;;;7.00;;
53867;SDS011;41577;47.470;19.080;2023-05-07T00:50:37;8.05;;;7.03;;
53867;SDS011;41577;47.470;19.080;2023-05-07T00:50:49;7.35;;;6.68;;
53867;SDS011;41577;47.470;19.080;2023-05-07T00:51:00;7.65;;;6.85;;
53867;SDS011;41577;47.470;19.080;2023-05-07T00:51:12;9.40;;;7.20;;
53867;SDS011;41577;47.470;19.080;2023-05-07T00:51:24;11.90;;;7.80;;
53867;SDS011;41577;47.470;19.080;2023-05-07T00:51:36;11.35;;;7.85;;
53867;SDS011;41577;47.470;19.080;2023-05-07T00:51:48;9.05;;;7.40;;
53867;SDS011;41577;47.470;19.080;2023-05-07T00:52:01;10.15;;;7.10;;
53867;SDS011;41577;47.470;19.080;2023-05-07T00:52:13;11.07;;;7.13;;
53867;SDS011;41577;47.470;19.080;2023-05-07T00:52:26;10.93;;;7.00;;
53867;SDS011;41577;47.470;19.080;2023-05-07T00:52:39;10.57;;;6.93;;
53867;SDS011;41577;47.470;19.080;2023-05-07T00:52:51;9.57;;;6.85;;
53867;SDS011;41577;47.470;19.080;2023-05-07T00:53:04;9.95;;;7.32;;
53867;SDS011;41577;47.470;19.080;2023-05-07T00:53:15;9.65;;;7.35;;
53867;SDS011;41577;47.470;19.080;2023-05-07T00:53:27;9.13;;;7.22;;
53867;SDS011;41577;47.470;19.080;2023-05-07T00:53:39;9.43;;;7.00;;
53867;SDS011;41577;47.470;19.080;2023-05-07T00:53:51;10.30;;;6.90;;
53867;SDS011;41577;47.470;19.080;2023-05-07T00:54:03;13.60;;;7.28;;
53867;SDS011;41577;47.470;19.080;2023-05-07T00:54:15;11.40;;;7.00;;
53867;SDS011;41577;47.470;19.080;2023-05-07T00:54:26;11.38;;;6.93;;
53867;SDS011;41577;47.470;19.080;2023-05-07T00:54:38;9.25;;;6.85;;
53867;SDS011;41577;47.470;19.080;2023-05-07T00:54:51;8.55;;;7.30;;
53867;SDS011;41577;47.470;19.080;2023-05-07T00:55:04;10.80;;;7.55;;
53867;SDS011;41577;47.470;19.080;2023-05-07T00:55:17;9.57;;;7.32;;
53867;SDS011;41577;47.470;19.080;2023-05-07T00:55:29;9.38;;;7.07;;
53867;SDS011;41577;47.470;19.080;2023-05-07T00:55:41;8.82;;;6.43;;
53867;SDS011;41577;47.470;19.080;2023-05-07T00:55:53;9.07;;;6.45;;
53867;SDS011;41577;47.470;19.080;2023-05-07T00:56:05;9.68;;;6.50;;
53867;SDS011;41577;47.470;19.080;2023-05-07T00:56:17;8.52;;;6.55;;
53867;SDS011;41577;47.470;19.080;2023-05-07T00:56:29;9.43;;;6.38;;
53867;SDS011;41577;47.470;19.080;2023-05-07T00:56:42;9.88;;;6.38;;
53867;SDS011;41577;47.470;19.080;2023-05-07T00:56:55;10.32;;;6.25;;
53867;SDS011;41577;47.470;19.080;2023-05-07T00:57:07;8.25;;;5.82;;
53867;SDS011;41577;47.470;19.080;2023-05-07T00:57:20;7.50;;;6.32;;
53867;SDS011;41577;47.470;19.080;2023-05-07T00:57:36;8.45;;;6.47;;
53867;SDS011;41577;47.470;19.080;2023-05-07T00:57:48;8.35;;;6.40;;
53867;SDS011;41577;47.470;19.080;2023-05-07T00:58:01;8.93;;;6.22;;
53867;SDS011;41577;47.470;19.080;2023-05-07T00:58:13;10.00;;;6.40;;
53867;SDS011;41577;47.470;19.080;2023-05-07T00:58:25;10.48;;;6.07;;
53867;SDS011;41577;47.470;19.080;2023-05-07T00:58:36;8.57;;;5.85;;
53867;SDS011;41577;47.470;19.080;2023-05-07T00:58:49;8.73;;;5.85;;
53867;SDS011;41577;47.470;19.080;2023-05-07T00:59:01;8.35;;;6.20;;
53867;SDS011;41577;47.470;19.080;2023-05-07T00:59:13;7.07;;;5.95;;
53867;SDS011;41577;47.470;19.080;2023-05-07T00:59:24;8.13;;;6.10;;
53867;SDS011;41577;47.470;19.080;2023-05-07T00:59:37;8.57;;;6.03;;
53867;SDS011;41577;47.470;19.080;2023-05-07T00:59:49;7.63;;;5.93;;
53867;SDS011;41577;47.470;19.080;2023-05-07T01:00:03;6.63;;;5.78;;
53867;SDS011;41577;47.470;19.080;2023-05-07T01:00:15;6.45;;;5.57;;
53867;SDS011;41577;47.470;19.080;2023-05-07T01:00:27;7.57;;;5.70;;
53867;SDS011;41577;47.470;19.080;2023-05-07T01:00:40;8.70;;;5.80;;
53867;SDS011;41577;47.470;19.080;2023-05-07T01:00:51;9.63;;;5.95;;
53867;SDS011;41577;47.470;19.080;2023-05-07T01:01:03;9.93;;;6.00;;
53867;SDS011;41577;47.470;19.080;2023-05-07T01:01:15;9.02;;;5.88;;
53867;SDS011;41577;47.470;19.080;2023-05-07T01:01:27;8.60;;;6.20;;
53867;SDS011;41577;47.470;19.080;2023-05-07T01:01:39;9.30;;;6.43;;
53867;SDS011;41577;47.470;19.080;2023-05-07T01:01:52;10.98;;;6.35;;
53867;SDS011;41577;47.470;19.080;2023-05-07T01:02:03;11.90;;;6.60;;
53867;SDS011;41577;47.470;19.080;2023-05-07T01:02:15;8.80;;;6.35;;
53867;SDS011;41577;47.470;19.080;2023-05-07T01:02:29;8.77;;;6.15;;
53867;SDS011;41577;47.470;19.080;2023-05-07T01:02:41;8.70;;;6.10;;
53867;SDS011;41577;47.470;19.080;2023-05-07T01:02:54;8.10;;;6.45;;
53867;SDS011;41577;47.470;19.080;2023-05-07T01:03:06;9.13;;;6.43;;
53867;SDS011;41577;47.470;19.080;2023-05-07T01:03:18;9.25;;;6.25;;
53867;SDS011;41577;47.470;19.080;2023-05-07T01:03:30;10.52;;;5.93;;
53867;SDS011;41577;47.470;19.080;2023-05-07T01:03:43;10.35;;;5.97;;
53867;SDS011;41577;47.470;19.080;2023-05-07T01:03:55;12.25;;;6.20;;
53867;SDS011;41577;47.470;19.080;2023-05-07T01:04:08;12.20;;;6.40;;
53867;SDS011;41577;47.470;19.080;2023-05-07T01:04:20;12.95;;;6.13;;
53867;SDS011;41577;47.470;19.080;2023-05-07T01:04:32;9.02;;;6.00;;
53867;SDS011;41577;47.470;19.080;2023-05-07T01:04:44;8.95;;;6.10;;
53867;SDS011;41577;47.470;19.080;2023-05-07T01:04:56;7.43;;;6.35;;
53867;SDS011;41577;47.470;19.080;2023-05-07T01:05:09;7.95;;;6.18;;
53867;SDS011;41577;47.470;19.080;2023-05-07T01:05:24;9.73;;;6.22;;
53867;SDS011;41577;47.470;19.080;2023-05-07T01:05:39;9.90;;;6.13;;
53867;SDS011;41577;47.470;19.080;2023-05-07T01:05:52;9.65;;;6.28;;
53867;SDS011;41577;47.470;19.080;2023-05-07T01:06:06;12.30;;;6.68;;
53867;SDS011;41577;47.470;19.080;2023-05-07T01:06:20;11.48;;;6.50;;
53867;SDS011;41577;47.470;19.080;2023-05-07T01:06:33;7.80;;;6.18;;
53867;SDS011;41577;47.470;19.080;2023-05-07T01:06:45;6.97;;;5.85;;
53867;SDS011;41577;47.470;19.080;2023-05-07T01:06:58;6.70;;;5.70;;
53867;SDS011;41577;47.470;19.080;2023-05-07T01:07:12;11.85;;;6.10;;
53867;SDS011;41577;47.470;19.080;2023-05-07T01:07:24;13.27;;;6.22;;
53867;SDS011;41577;47.470;19.080;2023-05-07T01:07:36;8.73;;;6.03;;
53867;SDS011;41577;47.470;19.080;2023-05-07T01:07:49;9.38;;;6.28;;
53867;SDS011;41577;47.470;19.080;2023-05-07T01:08:03;8.27;;;6.18;;
53867;SDS011;41577;47.470;19.080;2023-05-07T01:08:15;7.50;;;5.97;;
53867;SDS011;41577;47.470;19.080;2023-05-07T01:08:29;10.88;;;6.22;;
53867;SDS011;41577;47.470;19.080;2023-05-07T01:08:42;11.45;;;6.03;;
53867;SDS011;41577;47.470;19.080;2023-05-07T01:08:54;13.20;;;6.28;;
53867;SDS011;41577;47.470;19.080;2023-05-07T01:09:06;12.68;;;6.43;;
53867;SDS011;41577;47.470;19.080;2023-05-07T01:09:18;12.82;;;6.43;;
53867;SDS011;41577;47.470;19.080;2023-05-07T01:09:30;10.30;;;6.25;;
53867;SDS011;41577;47.470;19.080;2023-05-07T01:09:43;8.45;;;6.20;;
53867;SDS011;41577;47.470;19.080;2023-05-07T01:09:55;9.32;;;6.20;;
53867;SDS011;41577;47.470;19.080;2023-05-07T01:10:07;8.65;;;6.20;;
53867;SDS011;41577;47.470;19.080;2023-05-07T01:10:21;9.90;;;6.47;;
53867;SDS011;41577;47.470;19.080;2023-05-07T01:10:33;8.60;;;6.68;;
53867;SDS011;41577;47.470;19.080;2023-05-07T01:10:45;8.02;;;6.72;;
53867;SDS011;41577;47.470;19.080;2023-05-07T01:10:58;7.72;;;6.70;;
53867;SDS011;41577;47.470;19.080;2023-05-07T01:11:11;8.50;;;6.75;;
53867;SDS011;41577;47.470;19.080;2023-05-07T01:11:23;9.18;;;7.00;;